﻿<?xml version="1.0" encoding="UTF-8" standalone="no" ?>
<gpx xmlns="http://www.topografix.com/GPX/1/1" creator="CompeGPS" version="1.1" xmlns:xsi="http://www.w3.org/2001/XMLSchema-instance" xsi:schemaLocation="http://www.topografix.com/GPX/1/1 http://www.topografix.com/GPX/1/1/gpx.xsd http://www.garmin.com/xmlschemas/GpxExtensions/v3 http://www.garmin.com/xmlschemas/GpxExtensionsv3.xsd http://www.garmin.com/xmlschemas/TrackPointExtension/v1 http://www.garmin.com/xmlschemas/TrackPointExtensionv1.xsd" xmlns:gpxtpx="http://www.garmin.com/xmlschemas/TrackPointExtension/v1">
  <metadata>
    <link href="http://www.compegps.com">
      <text>CompeGPS TEAM, SL</text>
    </link>
    <time>2018-05-16T08:56:54Z</time>
    <bounds maxlat="44.845148" maxlon="6.871507" minlat="44.830415" minlon="6.815267"/>
  </metadata>
  <trk>
    <name>Rando_270</name>
    <trkseg>
      <trkpt lat="44.844852" lon="6.815327">
        <ele>2019.9</ele>
        <time>2017-09-28T06:51:49Z</time>
      </trkpt>
      <trkpt lat="44.844970" lon="6.815577">
        <ele>2033.4</ele>
        <time>2017-09-28T06:53:36Z</time>
      </trkpt>
      <trkpt lat="44.845148" lon="6.815798">
        <ele>2032.5</ele>
        <time>2017-09-28T06:54:01Z</time>
      </trkpt>
      <trkpt lat="44.844862" lon="6.816013">
        <ele>2036.0</ele>
        <time>2017-09-28T06:54:40Z</time>
      </trkpt>
      <trkpt lat="44.844523" lon="6.816075">
        <ele>2042.8</ele>
        <time>2017-09-28T06:55:14Z</time>
      </trkpt>
      <trkpt lat="44.844340" lon="6.816048">
        <ele>2051.1</ele>
        <time>2017-09-28T06:55:29Z</time>
      </trkpt>
      <trkpt lat="44.844142" lon="6.816368">
        <ele>2059.5</ele>
        <time>2017-09-28T06:56:02Z</time>
      </trkpt>
      <trkpt lat="44.843953" lon="6.817070">
        <ele>2063.1</ele>
        <time>2017-09-28T06:56:51Z</time>
      </trkpt>
      <trkpt lat="44.843682" lon="6.817067">
        <ele>2060.1</ele>
        <time>2017-09-28T06:57:22Z</time>
      </trkpt>
      <trkpt lat="44.843433" lon="6.817022">
        <ele>2061.8</ele>
        <time>2017-09-28T06:57:41Z</time>
      </trkpt>
      <trkpt lat="44.843182" lon="6.817112">
        <ele>2063.1</ele>
        <time>2017-09-28T06:58:05Z</time>
      </trkpt>
      <trkpt lat="44.842937" lon="6.817140">
        <ele>2068.1</ele>
        <time>2017-09-28T06:58:25Z</time>
      </trkpt>
      <trkpt lat="44.842882" lon="6.817593">
        <ele>2066.0</ele>
        <time>2017-09-28T07:00:33Z</time>
      </trkpt>
      <trkpt lat="44.842890" lon="6.817958">
        <ele>2073.8</ele>
        <time>2017-09-28T07:00:58Z</time>
      </trkpt>
      <trkpt lat="44.842853" lon="6.818438">
        <ele>2073.6</ele>
        <time>2017-09-28T07:01:31Z</time>
      </trkpt>
      <trkpt lat="44.842870" lon="6.818803">
        <ele>2073.6</ele>
        <time>2017-09-28T07:02:07Z</time>
      </trkpt>
      <trkpt lat="44.842797" lon="6.819132">
        <ele>2079.6</ele>
        <time>2017-09-28T07:02:39Z</time>
      </trkpt>
      <trkpt lat="44.842517" lon="6.819432">
        <ele>2090.1</ele>
        <time>2017-09-28T07:04:28Z</time>
      </trkpt>
      <trkpt lat="44.842432" lon="6.819775">
        <ele>2100.1</ele>
        <time>2017-09-28T07:05:17Z</time>
      </trkpt>
      <trkpt lat="44.842183" lon="6.820103">
        <ele>2109.3</ele>
        <time>2017-09-28T07:06:13Z</time>
      </trkpt>
      <trkpt lat="44.842043" lon="6.820812">
        <ele>2128.6</ele>
        <time>2017-09-28T07:07:55Z</time>
      </trkpt>
      <trkpt lat="44.842078" lon="6.821053">
        <ele>2125.6</ele>
        <time>2017-09-28T07:08:29Z</time>
      </trkpt>
      <trkpt lat="44.841910" lon="6.821465">
        <ele>2127.5</ele>
        <time>2017-09-28T07:09:49Z</time>
      </trkpt>
      <trkpt lat="44.841858" lon="6.821832">
        <ele>2134.8</ele>
        <time>2017-09-28T07:10:52Z</time>
      </trkpt>
      <trkpt lat="44.841855" lon="6.822332">
        <ele>2146.6</ele>
        <time>2017-09-28T07:12:22Z</time>
      </trkpt>
      <trkpt lat="44.841918" lon="6.822665">
        <ele>2153.8</ele>
        <time>2017-09-28T07:13:20Z</time>
      </trkpt>
      <trkpt lat="44.842042" lon="6.822963">
        <ele>2159.3</ele>
        <time>2017-09-28T07:14:20Z</time>
      </trkpt>
      <trkpt lat="44.842023" lon="6.823567">
        <ele>2171.1</ele>
        <time>2017-09-28T07:15:39Z</time>
      </trkpt>
      <trkpt lat="44.841923" lon="6.823910">
        <ele>2178.6</ele>
        <time>2017-09-28T07:16:32Z</time>
      </trkpt>
      <trkpt lat="44.841955" lon="6.824148">
        <ele>2183.6</ele>
        <time>2017-09-28T07:17:08Z</time>
      </trkpt>
      <trkpt lat="44.841907" lon="6.824587">
        <ele>2193.5</ele>
        <time>2017-09-28T07:18:42Z</time>
      </trkpt>
      <trkpt lat="44.841985" lon="6.824805">
        <ele>2200.1</ele>
        <time>2017-09-28T07:19:24Z</time>
      </trkpt>
      <trkpt lat="44.842070" lon="6.825275">
        <ele>2208.6</ele>
        <time>2017-09-28T07:20:21Z</time>
      </trkpt>
      <trkpt lat="44.842088" lon="6.825617">
        <ele>2214.8</ele>
        <time>2017-09-28T07:21:32Z</time>
      </trkpt>
      <trkpt lat="44.842072" lon="6.826095">
        <ele>2220.3</ele>
        <time>2017-09-28T07:22:18Z</time>
      </trkpt>
      <trkpt lat="44.842142" lon="6.826450">
        <ele>2224.3</ele>
        <time>2017-09-28T07:22:56Z</time>
      </trkpt>
      <trkpt lat="44.842267" lon="6.826757">
        <ele>2228.6</ele>
        <time>2017-09-28T07:23:41Z</time>
      </trkpt>
      <trkpt lat="44.842210" lon="6.827360">
        <ele>2233.0</ele>
        <time>2017-09-28T07:24:35Z</time>
      </trkpt>
      <trkpt lat="44.842148" lon="6.827703">
        <ele>2235.6</ele>
        <time>2017-09-28T07:25:18Z</time>
      </trkpt>
      <trkpt lat="44.841985" lon="6.828130">
        <ele>2238.6</ele>
        <time>2017-09-28T07:26:28Z</time>
      </trkpt>
      <trkpt lat="44.841973" lon="6.828597">
        <ele>2241.6</ele>
        <time>2017-09-28T07:27:06Z</time>
      </trkpt>
      <trkpt lat="44.841898" lon="6.828820">
        <ele>2243.1</ele>
        <time>2017-09-28T07:27:30Z</time>
      </trkpt>
      <trkpt lat="44.841670" lon="6.829180">
        <ele>2246.3</ele>
        <time>2017-09-28T07:28:24Z</time>
      </trkpt>
      <trkpt lat="44.841667" lon="6.829547">
        <ele>2249.1</ele>
        <time>2017-09-28T07:28:57Z</time>
      </trkpt>
      <trkpt lat="44.841683" lon="6.829798">
        <ele>2254.6</ele>
        <time>2017-09-28T07:29:43Z</time>
      </trkpt>
      <trkpt lat="44.841627" lon="6.830263">
        <ele>2260.3</ele>
        <time>2017-09-28T07:30:38Z</time>
      </trkpt>
      <trkpt lat="44.841618" lon="6.830745">
        <ele>2265.0</ele>
        <time>2017-09-28T07:32:30Z</time>
      </trkpt>
      <trkpt lat="44.841502" lon="6.831698">
        <ele>2274.3</ele>
        <time>2017-09-28T07:34:13Z</time>
      </trkpt>
      <trkpt lat="44.841415" lon="6.832160">
        <ele>2276.1</ele>
        <time>2017-09-28T07:35:07Z</time>
      </trkpt>
      <trkpt lat="44.841422" lon="6.832395">
        <ele>2277.0</ele>
        <time>2017-09-28T07:35:24Z</time>
      </trkpt>
      <trkpt lat="44.841325" lon="6.832737">
        <ele>2278.1</ele>
        <time>2017-09-28T07:35:50Z</time>
      </trkpt>
      <trkpt lat="44.841118" lon="6.833113">
        <ele>2278.8</ele>
        <time>2017-09-28T07:36:29Z</time>
      </trkpt>
      <trkpt lat="44.841112" lon="6.833955">
        <ele>2282.3</ele>
        <time>2017-09-28T07:37:38Z</time>
      </trkpt>
      <trkpt lat="44.841138" lon="6.834192">
        <ele>2282.8</ele>
        <time>2017-09-28T07:37:59Z</time>
      </trkpt>
      <trkpt lat="44.841145" lon="6.834550">
        <ele>2284.6</ele>
        <time>2017-09-28T07:38:30Z</time>
      </trkpt>
      <trkpt lat="44.841302" lon="6.834977">
        <ele>2285.8</ele>
        <time>2017-09-28T07:39:07Z</time>
      </trkpt>
      <trkpt lat="44.841345" lon="6.835337">
        <ele>2289.8</ele>
        <time>2017-09-28T07:39:43Z</time>
      </trkpt>
      <trkpt lat="44.841305" lon="6.835933">
        <ele>2294.8</ele>
        <time>2017-09-28T07:40:38Z</time>
      </trkpt>
      <trkpt lat="44.841212" lon="6.836145">
        <ele>2298.1</ele>
        <time>2017-09-28T07:41:30Z</time>
      </trkpt>
      <trkpt lat="44.841318" lon="6.836445">
        <ele>2300.5</ele>
        <time>2017-09-28T07:42:09Z</time>
      </trkpt>
      <trkpt lat="44.841313" lon="6.836922">
        <ele>2305.6</ele>
        <time>2017-09-28T07:42:59Z</time>
      </trkpt>
      <trkpt lat="44.841200" lon="6.837402">
        <ele>2308.5</ele>
        <time>2017-09-28T07:43:45Z</time>
      </trkpt>
      <trkpt lat="44.841163" lon="6.837760">
        <ele>2310.8</ele>
        <time>2017-09-28T07:44:18Z</time>
      </trkpt>
      <trkpt lat="44.841085" lon="6.838103">
        <ele>2311.3</ele>
        <time>2017-09-28T07:45:15Z</time>
      </trkpt>
      <trkpt lat="44.840993" lon="6.838435">
        <ele>2312.1</ele>
        <time>2017-09-28T07:45:47Z</time>
      </trkpt>
      <trkpt lat="44.840877" lon="6.838765">
        <ele>2315.0</ele>
        <time>2017-09-28T07:46:22Z</time>
      </trkpt>
      <trkpt lat="44.840688" lon="6.838985">
        <ele>2318.8</ele>
        <time>2017-09-28T07:46:52Z</time>
      </trkpt>
      <trkpt lat="44.840513" lon="6.839418">
        <ele>2319.6</ele>
        <time>2017-09-28T07:47:40Z</time>
      </trkpt>
      <trkpt lat="44.840348" lon="6.839705">
        <ele>2321.1</ele>
        <time>2017-09-28T07:48:17Z</time>
      </trkpt>
      <trkpt lat="44.840277" lon="6.839908">
        <ele>2323.3</ele>
        <time>2017-09-28T07:48:42Z</time>
      </trkpt>
      <trkpt lat="44.840210" lon="6.840253">
        <ele>2325.1</ele>
        <time>2017-09-28T07:49:16Z</time>
      </trkpt>
      <trkpt lat="44.840073" lon="6.840560">
        <ele>2328.5</ele>
        <time>2017-09-28T07:49:52Z</time>
      </trkpt>
      <trkpt lat="44.839873" lon="6.841230">
        <ele>2333.0</ele>
        <time>2017-09-28T07:51:20Z</time>
      </trkpt>
      <trkpt lat="44.839723" lon="6.841503">
        <ele>2338.1</ele>
        <time>2017-09-28T07:52:13Z</time>
      </trkpt>
      <trkpt lat="44.839695" lon="6.841852">
        <ele>2342.5</ele>
        <time>2017-09-28T07:52:58Z</time>
      </trkpt>
      <trkpt lat="44.839725" lon="6.842092">
        <ele>2342.6</ele>
        <time>2017-09-28T07:53:32Z</time>
      </trkpt>
      <trkpt lat="44.839672" lon="6.842448">
        <ele>2345.1</ele>
        <time>2017-09-28T07:54:09Z</time>
      </trkpt>
      <trkpt lat="44.839603" lon="6.842657">
        <ele>2346.8</ele>
        <time>2017-09-28T07:54:33Z</time>
      </trkpt>
      <trkpt lat="44.839538" lon="6.843012">
        <ele>2349.8</ele>
        <time>2017-09-28T07:55:13Z</time>
      </trkpt>
      <trkpt lat="44.839525" lon="6.843370">
        <ele>2350.6</ele>
        <time>2017-09-28T07:56:15Z</time>
      </trkpt>
      <trkpt lat="44.839462" lon="6.843580">
        <ele>2353.6</ele>
        <time>2017-09-28T07:56:35Z</time>
      </trkpt>
      <trkpt lat="44.839395" lon="6.844047">
        <ele>2354.8</ele>
        <time>2017-09-28T07:57:17Z</time>
      </trkpt>
      <trkpt lat="44.839275" lon="6.844223">
        <ele>2356.6</ele>
        <time>2017-09-28T07:57:39Z</time>
      </trkpt>
      <trkpt lat="44.838985" lon="6.844485">
        <ele>2364.0</ele>
        <time>2017-09-28T07:58:20Z</time>
      </trkpt>
      <trkpt lat="44.838768" lon="6.844838">
        <ele>2363.6</ele>
        <time>2017-09-28T07:59:01Z</time>
      </trkpt>
      <trkpt lat="44.838490" lon="6.845142">
        <ele>2367.1</ele>
        <time>2017-09-28T07:59:50Z</time>
      </trkpt>
      <trkpt lat="44.838392" lon="6.845342">
        <ele>2369.3</ele>
        <time>2017-09-28T08:00:14Z</time>
      </trkpt>
      <trkpt lat="44.838155" lon="6.845698">
        <ele>2374.8</ele>
        <time>2017-09-28T08:01:02Z</time>
      </trkpt>
      <trkpt lat="44.838087" lon="6.845768">
        <ele>2376.5</ele>
        <time>2017-09-28T08:01:13Z</time>
      </trkpt>
      <trkpt lat="44.837678" lon="6.846507">
        <ele>2386.1</ele>
        <time>2017-09-28T08:03:12Z</time>
      </trkpt>
      <trkpt lat="44.837448" lon="6.846640">
        <ele>2391.3</ele>
        <time>2017-09-28T08:03:49Z</time>
      </trkpt>
      <trkpt lat="44.837243" lon="6.847032">
        <ele>2398.1</ele>
        <time>2017-09-28T08:04:48Z</time>
      </trkpt>
      <trkpt lat="44.836778" lon="6.847910">
        <ele>2406.1</ele>
        <time>2017-09-28T08:06:51Z</time>
      </trkpt>
      <trkpt lat="44.836738" lon="6.848147">
        <ele>2407.6</ele>
        <time>2017-09-28T08:07:15Z</time>
      </trkpt>
      <trkpt lat="44.836595" lon="6.848453">
        <ele>2409.3</ele>
        <time>2017-09-28T08:07:52Z</time>
      </trkpt>
      <trkpt lat="44.836507" lon="6.848790">
        <ele>2412.3</ele>
        <time>2017-09-28T08:08:27Z</time>
      </trkpt>
      <trkpt lat="44.836333" lon="6.849057">
        <ele>2415.6</ele>
        <time>2017-09-28T08:09:07Z</time>
      </trkpt>
      <trkpt lat="44.836133" lon="6.849580">
        <ele>2420.1</ele>
        <time>2017-09-28T08:10:05Z</time>
      </trkpt>
      <trkpt lat="44.836025" lon="6.849757">
        <ele>2421.1</ele>
        <time>2017-09-28T08:10:26Z</time>
      </trkpt>
      <trkpt lat="44.836023" lon="6.850238">
        <ele>2425.1</ele>
        <time>2017-09-28T08:11:14Z</time>
      </trkpt>
      <trkpt lat="44.836145" lon="6.850670">
        <ele>2432.1</ele>
        <time>2017-09-28T08:12:19Z</time>
      </trkpt>
      <trkpt lat="44.836080" lon="6.850907">
        <ele>2437.1</ele>
        <time>2017-09-28T08:12:51Z</time>
      </trkpt>
      <trkpt lat="44.836157" lon="6.851368">
        <ele>2440.8</ele>
        <time>2017-09-28T08:16:19Z</time>
      </trkpt>
      <trkpt lat="44.836073" lon="6.851945">
        <ele>2448.8</ele>
        <time>2017-09-28T08:17:20Z</time>
      </trkpt>
      <trkpt lat="44.835992" lon="6.852737">
        <ele>2461.3</ele>
        <time>2017-09-28T08:19:24Z</time>
      </trkpt>
      <trkpt lat="44.835932" lon="6.852957">
        <ele>2467.5</ele>
        <time>2017-09-28T08:20:07Z</time>
      </trkpt>
      <trkpt lat="44.835895" lon="6.853432">
        <ele>2474.1</ele>
        <time>2017-09-28T08:21:02Z</time>
      </trkpt>
      <trkpt lat="44.835722" lon="6.853850">
        <ele>2482.3</ele>
        <time>2017-09-28T08:22:01Z</time>
      </trkpt>
      <trkpt lat="44.835638" lon="6.854177">
        <ele>2484.0</ele>
        <time>2017-09-28T08:22:42Z</time>
      </trkpt>
      <trkpt lat="44.835603" lon="6.854412">
        <ele>2486.3</ele>
        <time>2017-09-28T08:23:06Z</time>
      </trkpt>
      <trkpt lat="44.835467" lon="6.854730">
        <ele>2490.6</ele>
        <time>2017-09-28T08:23:47Z</time>
      </trkpt>
      <trkpt lat="44.835387" lon="6.855197">
        <ele>2494.6</ele>
        <time>2017-09-28T08:24:38Z</time>
      </trkpt>
      <trkpt lat="44.835337" lon="6.855298">
        <ele>2496.1</ele>
        <time>2017-09-28T08:24:54Z</time>
      </trkpt>
      <trkpt lat="44.835233" lon="6.855785">
        <ele>2497.6</ele>
        <time>2017-09-28T08:26:15Z</time>
      </trkpt>
      <trkpt lat="44.834997" lon="6.856080">
        <ele>2500.3</ele>
        <time>2017-09-28T08:26:52Z</time>
      </trkpt>
      <trkpt lat="44.834747" lon="6.856150">
        <ele>2501.6</ele>
        <time>2017-09-28T08:27:32Z</time>
      </trkpt>
      <trkpt lat="44.834513" lon="6.856478">
        <ele>2505.3</ele>
        <time>2017-09-28T08:28:07Z</time>
      </trkpt>
      <trkpt lat="44.834410" lon="6.856692">
        <ele>2506.3</ele>
        <time>2017-09-28T08:28:28Z</time>
      </trkpt>
      <trkpt lat="44.834332" lon="6.857007">
        <ele>2507.0</ele>
        <time>2017-09-28T08:28:52Z</time>
      </trkpt>
      <trkpt lat="44.834327" lon="6.857358">
        <ele>2506.8</ele>
        <time>2017-09-28T08:29:17Z</time>
      </trkpt>
      <trkpt lat="44.834105" lon="6.857880">
        <ele>2506.1</ele>
        <time>2017-09-28T08:30:04Z</time>
      </trkpt>
      <trkpt lat="44.834030" lon="6.858225">
        <ele>2510.3</ele>
        <time>2017-09-28T08:30:36Z</time>
      </trkpt>
      <trkpt lat="44.834042" lon="6.858583">
        <ele>2516.0</ele>
        <time>2017-09-28T08:31:16Z</time>
      </trkpt>
      <trkpt lat="44.833962" lon="6.858923">
        <ele>2521.3</ele>
        <time>2017-09-28T08:31:52Z</time>
      </trkpt>
      <trkpt lat="44.833927" lon="6.859282">
        <ele>2527.1</ele>
        <time>2017-09-28T08:32:34Z</time>
      </trkpt>
      <trkpt lat="44.833827" lon="6.859477">
        <ele>2530.5</ele>
        <time>2017-09-28T08:33:01Z</time>
      </trkpt>
      <trkpt lat="44.833745" lon="6.859820">
        <ele>2539.1</ele>
        <time>2017-09-28T08:33:49Z</time>
      </trkpt>
      <trkpt lat="44.833540" lon="6.860038">
        <ele>2547.6</ele>
        <time>2017-09-28T08:34:43Z</time>
      </trkpt>
      <trkpt lat="44.833470" lon="6.860278">
        <ele>2555.1</ele>
        <time>2017-09-28T08:35:27Z</time>
      </trkpt>
      <trkpt lat="44.833603" lon="6.860550">
        <ele>2558.8</ele>
        <time>2017-09-28T08:36:30Z</time>
      </trkpt>
      <trkpt lat="44.833493" lon="6.860885">
        <ele>2573.8</ele>
        <time>2017-09-28T08:37:32Z</time>
      </trkpt>
      <trkpt lat="44.833370" lon="6.861328">
        <ele>2580.8</ele>
        <time>2017-09-28T08:38:43Z</time>
      </trkpt>
      <trkpt lat="44.833513" lon="6.861692">
        <ele>2581.3</ele>
        <time>2017-09-28T08:40:25Z</time>
      </trkpt>
      <trkpt lat="44.833542" lon="6.862070">
        <ele>2585.8</ele>
        <time>2017-09-28T08:41:06Z</time>
      </trkpt>
      <trkpt lat="44.833507" lon="6.862303">
        <ele>2590.6</ele>
        <time>2017-09-28T08:41:30Z</time>
      </trkpt>
      <trkpt lat="44.833425" lon="6.862658">
        <ele>2597.8</ele>
        <time>2017-09-28T08:42:09Z</time>
      </trkpt>
      <trkpt lat="44.833157" lon="6.862937">
        <ele>2606.8</ele>
        <time>2017-09-28T08:43:05Z</time>
      </trkpt>
      <trkpt lat="44.832817" lon="6.863048">
        <ele>2610.5</ele>
        <time>2017-09-28T08:44:48Z</time>
      </trkpt>
      <trkpt lat="44.832577" lon="6.862932">
        <ele>2610.5</ele>
        <time>2017-09-28T08:45:28Z</time>
      </trkpt>
      <trkpt lat="44.832567" lon="6.863378">
        <ele>2619.6</ele>
        <time>2017-09-28T08:46:27Z</time>
      </trkpt>
      <trkpt lat="44.832825" lon="6.863675">
        <ele>2627.8</ele>
        <time>2017-09-28T08:47:37Z</time>
      </trkpt>
      <trkpt lat="44.832760" lon="6.863868">
        <ele>2634.6</ele>
        <time>2017-09-28T08:48:11Z</time>
      </trkpt>
      <trkpt lat="44.832717" lon="6.864213">
        <ele>2639.3</ele>
        <time>2017-09-28T08:49:12Z</time>
      </trkpt>
      <trkpt lat="44.832572" lon="6.864663">
        <ele>2656.6</ele>
        <time>2017-09-28T08:50:26Z</time>
      </trkpt>
      <trkpt lat="44.832542" lon="6.864897">
        <ele>2662.5</ele>
        <time>2017-09-28T08:50:57Z</time>
      </trkpt>
      <trkpt lat="44.832645" lon="6.865097">
        <ele>2667.6</ele>
        <time>2017-09-28T08:51:52Z</time>
      </trkpt>
      <trkpt lat="44.832598" lon="6.865317">
        <ele>2670.6</ele>
        <time>2017-09-28T08:52:11Z</time>
      </trkpt>
      <trkpt lat="44.832432" lon="6.865327">
        <ele>2675.6</ele>
        <time>2017-09-28T08:54:19Z</time>
      </trkpt>
      <trkpt lat="44.832125" lon="6.865537">
        <ele>2693.8</ele>
        <time>2017-09-28T08:55:26Z</time>
      </trkpt>
      <trkpt lat="44.832007" lon="6.865787">
        <ele>2695.6</ele>
        <time>2017-09-28T08:56:22Z</time>
      </trkpt>
      <trkpt lat="44.831902" lon="6.865987">
        <ele>2705.3</ele>
        <time>2017-09-28T08:57:31Z</time>
      </trkpt>
      <trkpt lat="44.831735" lon="6.866270">
        <ele>2717.1</ele>
        <time>2017-09-28T08:59:09Z</time>
      </trkpt>
      <trkpt lat="44.831665" lon="6.866628">
        <ele>2725.3</ele>
        <time>2017-09-28T09:00:26Z</time>
      </trkpt>
      <trkpt lat="44.831477" lon="6.866683">
        <ele>2736.3</ele>
        <time>2017-09-28T09:01:36Z</time>
      </trkpt>
      <trkpt lat="44.831357" lon="6.866873">
        <ele>2743.1</ele>
        <time>2017-09-28T09:02:37Z</time>
      </trkpt>
      <trkpt lat="44.831128" lon="6.866922">
        <ele>2759.0</ele>
        <time>2017-09-28T09:05:09Z</time>
      </trkpt>
      <trkpt lat="44.831037" lon="6.867203">
        <ele>2762.6</ele>
        <time>2017-09-28T09:06:15Z</time>
      </trkpt>
      <trkpt lat="44.830883" lon="6.867263">
        <ele>2772.1</ele>
        <time>2017-09-28T09:07:18Z</time>
      </trkpt>
      <trkpt lat="44.830762" lon="6.867575">
        <ele>2778.1</ele>
        <time>2017-09-28T09:08:47Z</time>
      </trkpt>
      <trkpt lat="44.830768" lon="6.867820">
        <ele>2782.8</ele>
        <time>2017-09-28T09:09:24Z</time>
      </trkpt>
      <trkpt lat="44.830695" lon="6.868183">
        <ele>2794.1</ele>
        <time>2017-09-28T09:11:29Z</time>
      </trkpt>
      <trkpt lat="44.830734" lon="6.868462">
        <ele>2804.0</ele>
        <time>2017-09-28T09:12:48Z</time>
      </trkpt>
      <trkpt lat="44.830707" lon="6.868668">
        <ele>2811.6</ele>
        <time>2017-09-28T09:13:42Z</time>
      </trkpt>
      <trkpt lat="44.830605" lon="6.868927">
        <ele>2826.5</ele>
        <time>2017-09-28T09:15:15Z</time>
      </trkpt>
      <trkpt lat="44.830415" lon="6.868953">
        <ele>2836.8</ele>
        <time>2017-09-28T09:17:52Z</time>
      </trkpt>
      <trkpt lat="44.830447" lon="6.869183">
        <ele>2836.5</ele>
        <time>2017-09-28T09:18:14Z</time>
      </trkpt>
      <trkpt lat="44.830682" lon="6.869493">
        <ele>2839.3</ele>
        <time>2017-09-28T09:19:31Z</time>
      </trkpt>
      <trkpt lat="44.830697" lon="6.869738">
        <ele>2845.3</ele>
        <time>2017-09-28T09:20:15Z</time>
      </trkpt>
      <trkpt lat="44.830785" lon="6.870080">
        <ele>2857.5</ele>
        <time>2017-09-28T09:21:35Z</time>
      </trkpt>
      <trkpt lat="44.830878" lon="6.870293">
        <ele>2861.6</ele>
        <time>2017-09-28T09:22:17Z</time>
      </trkpt>
      <trkpt lat="44.831018" lon="6.870970">
        <ele>2883.6</ele>
        <time>2017-09-28T09:25:06Z</time>
      </trkpt>
      <trkpt lat="44.830962" lon="6.871288">
        <ele>2904.1</ele>
        <time>2017-09-28T09:27:25Z</time>
      </trkpt>
      <trkpt lat="44.831028" lon="6.871507">
        <ele>2909.8</ele>
        <time>2017-09-28T09:29:38Z</time>
      </trkpt>
      <trkpt lat="44.830705" lon="6.869760">
        <ele>2855.5</ele>
        <time>2017-09-28T12:22:26Z</time>
      </trkpt>
      <trkpt lat="44.830680" lon="6.869425">
        <ele>2849.6</ele>
        <time>2017-09-28T12:23:30Z</time>
      </trkpt>
      <trkpt lat="44.830453" lon="6.869075">
        <ele>2847.1</ele>
        <time>2017-09-28T12:24:11Z</time>
      </trkpt>
      <trkpt lat="44.830483" lon="6.868832">
        <ele>2838.8</ele>
        <time>2017-09-28T12:45:50Z</time>
      </trkpt>
      <trkpt lat="44.830725" lon="6.868823">
        <ele>2827.5</ele>
        <time>2017-09-28T12:47:05Z</time>
      </trkpt>
      <trkpt lat="44.830713" lon="6.868560">
        <ele>2821.6</ele>
        <time>2017-09-28T12:48:07Z</time>
      </trkpt>
      <trkpt lat="44.830700" lon="6.867893">
        <ele>2799.0</ele>
        <time>2017-09-28T12:50:33Z</time>
      </trkpt>
      <trkpt lat="44.830778" lon="6.867673">
        <ele>2788.8</ele>
        <time>2017-09-28T12:51:26Z</time>
      </trkpt>
      <trkpt lat="44.830805" lon="6.867327">
        <ele>2777.3</ele>
        <time>2017-09-28T12:52:25Z</time>
      </trkpt>
      <trkpt lat="44.831007" lon="6.867185">
        <ele>2764.6</ele>
        <time>2017-09-28T12:53:31Z</time>
      </trkpt>
      <trkpt lat="44.831008" lon="6.867052">
        <ele>2762.1</ele>
        <time>2017-09-28T12:53:52Z</time>
      </trkpt>
      <trkpt lat="44.831182" lon="6.866952">
        <ele>2750.6</ele>
        <time>2017-09-28T12:54:55Z</time>
      </trkpt>
      <trkpt lat="44.831383" lon="6.866723">
        <ele>2737.6</ele>
        <time>2017-09-28T12:56:20Z</time>
      </trkpt>
      <trkpt lat="44.831610" lon="6.866643">
        <ele>2729.3</ele>
        <time>2017-09-28T12:57:15Z</time>
      </trkpt>
      <trkpt lat="44.831737" lon="6.866422">
        <ele>2717.6</ele>
        <time>2017-09-28T12:58:13Z</time>
      </trkpt>
      <trkpt lat="44.831847" lon="6.866050">
        <ele>2704.3</ele>
        <time>2017-09-28T13:00:02Z</time>
      </trkpt>
      <trkpt lat="44.832022" lon="6.865847">
        <ele>2694.8</ele>
        <time>2017-09-28T13:00:58Z</time>
      </trkpt>
      <trkpt lat="44.832043" lon="6.865637">
        <ele>2689.1</ele>
        <time>2017-09-28T13:01:35Z</time>
      </trkpt>
      <trkpt lat="44.832215" lon="6.865458">
        <ele>2680.3</ele>
        <time>2017-09-28T13:02:39Z</time>
      </trkpt>
      <trkpt lat="44.832428" lon="6.865287">
        <ele>2674.1</ele>
        <time>2017-09-28T13:03:21Z</time>
      </trkpt>
      <trkpt lat="44.832605" lon="6.864988">
        <ele>2667.6</ele>
        <time>2017-09-28T13:04:08Z</time>
      </trkpt>
      <trkpt lat="44.832565" lon="6.864555">
        <ele>2658.1</ele>
        <time>2017-09-28T13:05:02Z</time>
      </trkpt>
      <trkpt lat="44.832722" lon="6.864117">
        <ele>2646.8</ele>
        <time>2017-09-28T13:06:02Z</time>
      </trkpt>
      <trkpt lat="44.832698" lon="6.863987">
        <ele>2643.1</ele>
        <time>2017-09-28T13:06:20Z</time>
      </trkpt>
      <trkpt lat="44.832788" lon="6.863575">
        <ele>2634.6</ele>
        <time>2017-09-28T13:07:17Z</time>
      </trkpt>
      <trkpt lat="44.832567" lon="6.863403">
        <ele>2631.3</ele>
        <time>2017-09-28T13:07:52Z</time>
      </trkpt>
      <trkpt lat="44.832518" lon="6.863045">
        <ele>2623.6</ele>
        <time>2017-09-28T13:08:33Z</time>
      </trkpt>
      <trkpt lat="44.832690" lon="6.862912">
        <ele>2616.5</ele>
        <time>2017-09-28T13:09:08Z</time>
      </trkpt>
      <trkpt lat="44.832925" lon="6.862927">
        <ele>2611.3</ele>
        <time>2017-09-28T13:09:51Z</time>
      </trkpt>
      <trkpt lat="44.833170" lon="6.862873">
        <ele>2606.1</ele>
        <time>2017-09-28T13:10:30Z</time>
      </trkpt>
      <trkpt lat="44.833415" lon="6.862563">
        <ele>2599.6</ele>
        <time>2017-09-28T13:11:09Z</time>
      </trkpt>
      <trkpt lat="44.833502" lon="6.862095">
        <ele>2592.8</ele>
        <time>2017-09-28T13:11:45Z</time>
      </trkpt>
      <trkpt lat="44.833515" lon="6.861977">
        <ele>2591.5</ele>
        <time>2017-09-28T13:11:54Z</time>
      </trkpt>
      <trkpt lat="44.833450" lon="6.861523">
        <ele>2585.5</ele>
        <time>2017-09-28T13:12:44Z</time>
      </trkpt>
      <trkpt lat="44.833333" lon="6.861213">
        <ele>2577.6</ele>
        <time>2017-09-28T13:13:20Z</time>
      </trkpt>
      <trkpt lat="44.833433" lon="6.860887">
        <ele>2569.3</ele>
        <time>2017-09-28T13:13:54Z</time>
      </trkpt>
      <trkpt lat="44.833560" lon="6.860563">
        <ele>2561.1</ele>
        <time>2017-09-28T13:14:36Z</time>
      </trkpt>
      <trkpt lat="44.833524" lon="6.860338">
        <ele>2554.8</ele>
        <time>2017-09-28T13:15:08Z</time>
      </trkpt>
      <trkpt lat="44.833577" lon="6.859947">
        <ele>2544.3</ele>
        <time>2017-09-28T13:15:53Z</time>
      </trkpt>
      <trkpt lat="44.833732" lon="6.859823">
        <ele>2539.6</ele>
        <time>2017-09-28T13:16:15Z</time>
      </trkpt>
      <trkpt lat="44.833832" lon="6.859375">
        <ele>2529.1</ele>
        <time>2017-09-28T13:17:02Z</time>
      </trkpt>
      <trkpt lat="44.834020" lon="6.858623">
        <ele>2516.0</ele>
        <time>2017-09-28T13:18:10Z</time>
      </trkpt>
      <trkpt lat="44.834020" lon="6.858132">
        <ele>2510.0</ele>
        <time>2017-09-28T13:18:46Z</time>
      </trkpt>
      <trkpt lat="44.834087" lon="6.857675">
        <ele>2503.8</ele>
        <time>2017-09-28T13:19:17Z</time>
      </trkpt>
      <trkpt lat="44.834303" lon="6.857358">
        <ele>2501.6</ele>
        <time>2017-09-28T13:20:00Z</time>
      </trkpt>
      <trkpt lat="44.834277" lon="6.857123">
        <ele>2501.1</ele>
        <time>2017-09-28T13:20:17Z</time>
      </trkpt>
      <trkpt lat="44.834320" lon="6.856768">
        <ele>2499.6</ele>
        <time>2017-09-28T13:20:38Z</time>
      </trkpt>
      <trkpt lat="44.834433" lon="6.856455">
        <ele>2496.8</ele>
        <time>2017-09-28T13:20:59Z</time>
      </trkpt>
      <trkpt lat="44.834685" lon="6.856163">
        <ele>2495.8</ele>
        <time>2017-09-28T13:21:26Z</time>
      </trkpt>
      <trkpt lat="44.835082" lon="6.855965">
        <ele>2494.8</ele>
        <time>2017-09-28T13:22:05Z</time>
      </trkpt>
      <trkpt lat="44.835215" lon="6.855668">
        <ele>2492.1</ele>
        <time>2017-09-28T13:22:36Z</time>
      </trkpt>
      <trkpt lat="44.835292" lon="6.855223">
        <ele>2490.3</ele>
        <time>2017-09-28T13:23:30Z</time>
      </trkpt>
      <trkpt lat="44.835438" lon="6.854667">
        <ele>2484.8</ele>
        <time>2017-09-28T13:24:25Z</time>
      </trkpt>
      <trkpt lat="44.835565" lon="6.854347">
        <ele>2482.1</ele>
        <time>2017-09-28T13:24:57Z</time>
      </trkpt>
      <trkpt lat="44.835623" lon="6.853897">
        <ele>2478.8</ele>
        <time>2017-09-28T13:25:34Z</time>
      </trkpt>
      <trkpt lat="44.835730" lon="6.853705">
        <ele>2478.6</ele>
        <time>2017-09-28T13:25:54Z</time>
      </trkpt>
      <trkpt lat="44.835855" lon="6.853393">
        <ele>2473.1</ele>
        <time>2017-09-28T13:26:29Z</time>
      </trkpt>
      <trkpt lat="44.835920" lon="6.853045">
        <ele>2469.6</ele>
        <time>2017-09-28T13:27:00Z</time>
      </trkpt>
      <trkpt lat="44.835918" lon="6.852905">
        <ele>2468.8</ele>
        <time>2017-09-28T13:27:09Z</time>
      </trkpt>
      <trkpt lat="44.836012" lon="6.852450">
        <ele>2462.3</ele>
        <time>2017-09-28T13:28:05Z</time>
      </trkpt>
      <trkpt lat="44.836032" lon="6.852095">
        <ele>2459.1</ele>
        <time>2017-09-28T13:28:34Z</time>
      </trkpt>
      <trkpt lat="44.836073" lon="6.851557">
        <ele>2452.1</ele>
        <time>2017-09-28T13:29:22Z</time>
      </trkpt>
      <trkpt lat="44.836145" lon="6.851128">
        <ele>2443.8</ele>
        <time>2017-09-28T13:29:57Z</time>
      </trkpt>
      <trkpt lat="44.836065" lon="6.850910">
        <ele>2440.6</ele>
        <time>2017-09-28T13:30:11Z</time>
      </trkpt>
      <trkpt lat="44.836117" lon="6.850675">
        <ele>2436.8</ele>
        <time>2017-09-28T13:30:33Z</time>
      </trkpt>
      <trkpt lat="44.835987" lon="6.850123">
        <ele>2429.3</ele>
        <time>2017-09-28T13:31:24Z</time>
      </trkpt>
      <trkpt lat="44.836000" lon="6.849672">
        <ele>2425.8</ele>
        <time>2017-09-28T13:31:54Z</time>
      </trkpt>
      <trkpt lat="44.836122" lon="6.849517">
        <ele>2426.1</ele>
        <time>2017-09-28T13:32:08Z</time>
      </trkpt>
      <trkpt lat="44.836230" lon="6.849182">
        <ele>2422.8</ele>
        <time>2017-09-28T13:32:40Z</time>
      </trkpt>
      <trkpt lat="44.836397" lon="6.848913">
        <ele>2418.5</ele>
        <time>2017-09-28T13:33:04Z</time>
      </trkpt>
      <trkpt lat="44.836490" lon="6.848698">
        <ele>2413.6</ele>
        <time>2017-09-28T13:33:23Z</time>
      </trkpt>
      <trkpt lat="44.836538" lon="6.848467">
        <ele>2410.1</ele>
        <time>2017-09-28T13:33:38Z</time>
      </trkpt>
      <trkpt lat="44.836715" lon="6.848073">
        <ele>2405.1</ele>
        <time>2017-09-28T13:34:09Z</time>
      </trkpt>
      <trkpt lat="44.836878" lon="6.847648">
        <ele>2404.3</ele>
        <time>2017-09-28T13:34:42Z</time>
      </trkpt>
      <trkpt lat="44.837040" lon="6.847367">
        <ele>2399.6</ele>
        <time>2017-09-28T13:35:11Z</time>
      </trkpt>
      <trkpt lat="44.837198" lon="6.846947">
        <ele>2391.1</ele>
        <time>2017-09-28T13:35:50Z</time>
      </trkpt>
      <trkpt lat="44.837400" lon="6.846557">
        <ele>2388.1</ele>
        <time>2017-09-28T13:36:28Z</time>
      </trkpt>
      <trkpt lat="44.837708" lon="6.846363">
        <ele>2382.1</ele>
        <time>2017-09-28T13:37:03Z</time>
      </trkpt>
      <trkpt lat="44.837837" lon="6.846090">
        <ele>2380.0</ele>
        <time>2017-09-28T13:37:25Z</time>
      </trkpt>
      <trkpt lat="44.838075" lon="6.845743">
        <ele>2377.1</ele>
        <time>2017-09-28T13:37:58Z</time>
      </trkpt>
      <trkpt lat="44.838140" lon="6.845668">
        <ele>2376.8</ele>
        <time>2017-09-28T13:38:06Z</time>
      </trkpt>
      <trkpt lat="44.838375" lon="6.845325">
        <ele>2372.8</ele>
        <time>2017-09-28T13:38:39Z</time>
      </trkpt>
      <trkpt lat="44.838480" lon="6.845123">
        <ele>2370.1</ele>
        <time>2017-09-28T13:38:56Z</time>
      </trkpt>
      <trkpt lat="44.838820" lon="6.844777">
        <ele>2366.8</ele>
        <time>2017-09-28T13:39:34Z</time>
      </trkpt>
      <trkpt lat="44.838877" lon="6.844682">
        <ele>2366.0</ele>
        <time>2017-09-28T13:39:41Z</time>
      </trkpt>
      <trkpt lat="44.839103" lon="6.844360">
        <ele>2363.3</ele>
        <time>2017-09-28T13:40:07Z</time>
      </trkpt>
      <trkpt lat="44.839302" lon="6.844142">
        <ele>2358.8</ele>
        <time>2017-09-28T13:40:30Z</time>
      </trkpt>
      <trkpt lat="44.839405" lon="6.843942">
        <ele>2356.1</ele>
        <time>2017-09-28T13:40:46Z</time>
      </trkpt>
      <trkpt lat="44.839460" lon="6.843568">
        <ele>2348.6</ele>
        <time>2017-09-28T13:41:25Z</time>
      </trkpt>
      <trkpt lat="44.839512" lon="6.843382">
        <ele>2345.6</ele>
        <time>2017-09-28T13:41:37Z</time>
      </trkpt>
      <trkpt lat="44.839555" lon="6.842915">
        <ele>2344.0</ele>
        <time>2017-09-28T13:42:04Z</time>
      </trkpt>
      <trkpt lat="44.839620" lon="6.842580">
        <ele>2340.8</ele>
        <time>2017-09-28T13:42:27Z</time>
      </trkpt>
      <trkpt lat="44.839693" lon="6.842367">
        <ele>2338.3</ele>
        <time>2017-09-28T13:42:46Z</time>
      </trkpt>
      <trkpt lat="44.839718" lon="6.842038">
        <ele>2336.5</ele>
        <time>2017-09-28T13:43:07Z</time>
      </trkpt>
      <trkpt lat="44.839673" lon="6.841810">
        <ele>2337.1</ele>
        <time>2017-09-28T13:43:25Z</time>
      </trkpt>
      <trkpt lat="44.839698" lon="6.841472">
        <ele>2335.3</ele>
        <time>2017-09-28T13:43:56Z</time>
      </trkpt>
      <trkpt lat="44.839767" lon="6.841245">
        <ele>2332.5</ele>
        <time>2017-09-28T13:44:17Z</time>
      </trkpt>
      <trkpt lat="44.839953" lon="6.840970">
        <ele>2331.1</ele>
        <time>2017-09-28T13:44:42Z</time>
      </trkpt>
      <trkpt lat="44.840195" lon="6.840218">
        <ele>2325.6</ele>
        <time>2017-09-28T13:45:34Z</time>
      </trkpt>
      <trkpt lat="44.840242" lon="6.840113">
        <ele>2325.1</ele>
        <time>2017-09-28T13:45:41Z</time>
      </trkpt>
      <trkpt lat="44.840348" lon="6.839653">
        <ele>2322.8</ele>
        <time>2017-09-28T13:46:10Z</time>
      </trkpt>
      <trkpt lat="44.840473" lon="6.839482">
        <ele>2321.3</ele>
        <time>2017-09-28T13:46:26Z</time>
      </trkpt>
      <trkpt lat="44.840662" lon="6.839070">
        <ele>2320.6</ele>
        <time>2017-09-28T13:46:56Z</time>
      </trkpt>
      <trkpt lat="44.840875" lon="6.838737">
        <ele>2320.1</ele>
        <time>2017-09-28T13:47:23Z</time>
      </trkpt>
      <trkpt lat="44.841045" lon="6.838317">
        <ele>2316.6</ele>
        <time>2017-09-28T13:47:55Z</time>
      </trkpt>
      <trkpt lat="44.841148" lon="6.837872">
        <ele>2314.1</ele>
        <time>2017-09-28T13:48:23Z</time>
      </trkpt>
      <trkpt lat="44.841160" lon="6.837645">
        <ele>2313.0</ele>
        <time>2017-09-28T13:48:37Z</time>
      </trkpt>
      <trkpt lat="44.841215" lon="6.837295">
        <ele>2309.8</ele>
        <time>2017-09-28T13:49:01Z</time>
      </trkpt>
      <trkpt lat="44.841312" lon="6.836843">
        <ele>2306.8</ele>
        <time>2017-09-28T13:49:35Z</time>
      </trkpt>
      <trkpt lat="44.841277" lon="6.836607">
        <ele>2305.6</ele>
        <time>2017-09-28T13:49:51Z</time>
      </trkpt>
      <trkpt lat="44.841298" lon="6.836253">
        <ele>2302.0</ele>
        <time>2017-09-28T13:50:18Z</time>
      </trkpt>
      <trkpt lat="44.841252" lon="6.835910">
        <ele>2295.1</ele>
        <time>2017-09-28T13:51:25Z</time>
      </trkpt>
      <trkpt lat="44.841317" lon="6.835572">
        <ele>2291.0</ele>
        <time>2017-09-28T13:51:55Z</time>
      </trkpt>
      <trkpt lat="44.841327" lon="6.835223">
        <ele>2288.8</ele>
        <time>2017-09-28T13:52:21Z</time>
      </trkpt>
      <trkpt lat="44.841207" lon="6.834777">
        <ele>2288.0</ele>
        <time>2017-09-28T13:52:54Z</time>
      </trkpt>
      <trkpt lat="44.841082" lon="6.833948">
        <ele>2286.3</ele>
        <time>2017-09-28T13:53:51Z</time>
      </trkpt>
      <trkpt lat="44.841082" lon="6.833702">
        <ele>2281.8</ele>
        <time>2017-09-28T13:54:09Z</time>
      </trkpt>
      <trkpt lat="44.841110" lon="6.833220">
        <ele>2276.6</ele>
        <time>2017-09-28T13:54:42Z</time>
      </trkpt>
      <trkpt lat="44.841255" lon="6.832813">
        <ele>2272.6</ele>
        <time>2017-09-28T13:55:15Z</time>
      </trkpt>
      <trkpt lat="44.841422" lon="6.832443">
        <ele>2274.0</ele>
        <time>2017-09-28T13:57:27Z</time>
      </trkpt>
      <trkpt lat="44.841383" lon="6.831997">
        <ele>2275.3</ele>
        <time>2017-09-28T13:57:54Z</time>
      </trkpt>
      <trkpt lat="44.841460" lon="6.831587">
        <ele>2275.3</ele>
        <time>2017-09-28T13:58:25Z</time>
      </trkpt>
      <trkpt lat="44.841518" lon="6.831122">
        <ele>2268.1</ele>
        <time>2017-09-28T13:59:04Z</time>
      </trkpt>
      <trkpt lat="44.841607" lon="6.830200">
        <ele>2254.5</ele>
        <time>2017-09-28T14:00:15Z</time>
      </trkpt>
      <trkpt lat="44.841650" lon="6.829858">
        <ele>2251.6</ele>
        <time>2017-09-28T14:00:42Z</time>
      </trkpt>
      <trkpt lat="44.841603" lon="6.829388">
        <ele>2247.6</ele>
        <time>2017-09-28T14:01:16Z</time>
      </trkpt>
      <trkpt lat="44.841605" lon="6.829155">
        <ele>2245.5</ele>
        <time>2017-09-28T14:01:31Z</time>
      </trkpt>
      <trkpt lat="44.841818" lon="6.828813">
        <ele>2242.1</ele>
        <time>2017-09-28T14:02:05Z</time>
      </trkpt>
      <trkpt lat="44.841912" lon="6.828355">
        <ele>2238.6</ele>
        <time>2017-09-28T14:02:40Z</time>
      </trkpt>
      <trkpt lat="44.841950" lon="6.828030">
        <ele>2236.6</ele>
        <time>2017-09-28T14:03:03Z</time>
      </trkpt>
      <trkpt lat="44.842057" lon="6.827840">
        <ele>2234.6</ele>
        <time>2017-09-28T14:03:20Z</time>
      </trkpt>
      <trkpt lat="44.842138" lon="6.827385">
        <ele>2231.1</ele>
        <time>2017-09-28T14:03:51Z</time>
      </trkpt>
      <trkpt lat="44.842170" lon="6.827143">
        <ele>2227.6</ele>
        <time>2017-09-28T14:04:08Z</time>
      </trkpt>
      <trkpt lat="44.842183" lon="6.826655">
        <ele>2223.1</ele>
        <time>2017-09-28T14:04:37Z</time>
      </trkpt>
      <trkpt lat="44.842088" lon="6.826430">
        <ele>2221.0</ele>
        <time>2017-09-28T14:04:56Z</time>
      </trkpt>
      <trkpt lat="44.842030" lon="6.826097">
        <ele>2217.1</ele>
        <time>2017-09-28T14:05:20Z</time>
      </trkpt>
      <trkpt lat="44.842060" lon="6.825865">
        <ele>2213.3</ele>
        <time>2017-09-28T14:05:48Z</time>
      </trkpt>
      <trkpt lat="44.842070" lon="6.825385">
        <ele>2209.0</ele>
        <time>2017-09-28T14:06:16Z</time>
      </trkpt>
      <trkpt lat="44.841983" lon="6.824917">
        <ele>2201.3</ele>
        <time>2017-09-28T14:06:57Z</time>
      </trkpt>
      <trkpt lat="44.841902" lon="6.824588">
        <ele>2194.1</ele>
        <time>2017-09-28T14:07:34Z</time>
      </trkpt>
      <trkpt lat="44.841933" lon="6.824288">
        <ele>2184.3</ele>
        <time>2017-09-28T14:08:12Z</time>
      </trkpt>
      <trkpt lat="44.841920" lon="6.823923">
        <ele>2176.1</ele>
        <time>2017-09-28T14:20:46Z</time>
      </trkpt>
      <trkpt lat="44.841990" lon="6.823578">
        <ele>2168.8</ele>
        <time>2017-09-28T14:21:23Z</time>
      </trkpt>
      <trkpt lat="44.842010" lon="6.822978">
        <ele>2161.0</ele>
        <time>2017-09-28T14:22:27Z</time>
      </trkpt>
      <trkpt lat="44.841915" lon="6.822657">
        <ele>2155.6</ele>
        <time>2017-09-28T14:22:59Z</time>
      </trkpt>
      <trkpt lat="44.841822" lon="6.822183">
        <ele>2140.3</ele>
        <time>2017-09-28T14:24:05Z</time>
      </trkpt>
      <trkpt lat="44.841927" lon="6.821245">
        <ele>2114.8</ele>
        <time>2017-09-28T14:26:00Z</time>
      </trkpt>
      <trkpt lat="44.842010" lon="6.821187">
        <ele>2112.3</ele>
        <time>2017-09-28T14:26:18Z</time>
      </trkpt>
      <trkpt lat="44.842003" lon="6.820717">
        <ele>2107.3</ele>
        <time>2017-09-28T14:27:13Z</time>
      </trkpt>
      <trkpt lat="44.842025" lon="6.820375">
        <ele>2096.6</ele>
        <time>2017-09-28T14:27:45Z</time>
      </trkpt>
      <trkpt lat="44.842107" lon="6.820160">
        <ele>2091.6</ele>
        <time>2017-09-28T14:28:10Z</time>
      </trkpt>
      <trkpt lat="44.842347" lon="6.819828">
        <ele>2090.3</ele>
        <time>2017-09-28T14:29:01Z</time>
      </trkpt>
      <trkpt lat="44.842400" lon="6.819728">
        <ele>2091.6</ele>
        <time>2017-09-28T14:29:12Z</time>
      </trkpt>
      <trkpt lat="44.842538" lon="6.819272">
        <ele>2085.6</ele>
        <time>2017-09-28T14:30:19Z</time>
      </trkpt>
      <trkpt lat="44.842825" lon="6.819040">
        <ele>2071.1</ele>
        <time>2017-09-28T14:31:26Z</time>
      </trkpt>
      <trkpt lat="44.842857" lon="6.818692">
        <ele>2068.6</ele>
        <time>2017-09-28T14:31:48Z</time>
      </trkpt>
      <trkpt lat="44.842817" lon="6.818215">
        <ele>2066.8</ele>
        <time>2017-09-28T14:32:16Z</time>
      </trkpt>
      <trkpt lat="44.842832" lon="6.817863">
        <ele>2063.6</ele>
        <time>2017-09-28T14:32:36Z</time>
      </trkpt>
      <trkpt lat="44.842898" lon="6.817285">
        <ele>2058.6</ele>
        <time>2017-09-28T14:33:14Z</time>
      </trkpt>
      <trkpt lat="44.842952" lon="6.817063">
        <ele>2056.5</ele>
        <time>2017-09-28T14:33:42Z</time>
      </trkpt>
      <trkpt lat="44.843285" lon="6.817010">
        <ele>2060.8</ele>
        <time>2017-09-28T14:34:09Z</time>
      </trkpt>
      <trkpt lat="44.843565" lon="6.816775">
        <ele>2061.1</ele>
        <time>2017-09-28T14:34:34Z</time>
      </trkpt>
      <trkpt lat="44.843785" lon="6.816665">
        <ele>2062.0</ele>
        <time>2017-09-28T14:34:52Z</time>
      </trkpt>
      <trkpt lat="44.843998" lon="6.816525">
        <ele>2061.8</ele>
        <time>2017-09-28T14:35:12Z</time>
      </trkpt>
      <trkpt lat="44.844312" lon="6.816378">
        <ele>2058.1</ele>
        <time>2017-09-28T14:35:48Z</time>
      </trkpt>
      <trkpt lat="44.844357" lon="6.816282">
        <ele>2057.1</ele>
        <time>2017-09-28T14:35:55Z</time>
      </trkpt>
      <trkpt lat="44.844590" lon="6.815973">
        <ele>2051.8</ele>
        <time>2017-09-28T14:36:36Z</time>
      </trkpt>
      <trkpt lat="44.844823" lon="6.815953">
        <ele>2054.1</ele>
        <time>2017-09-28T14:36:54Z</time>
      </trkpt>
      <trkpt lat="44.845028" lon="6.815742">
        <ele>2056.6</ele>
        <time>2017-09-28T14:37:14Z</time>
      </trkpt>
      <trkpt lat="44.844933" lon="6.815267">
        <ele>2055.8</ele>
        <time>2017-09-28T14:38:15Z</time>
      </trkpt>
    </trkseg>
  </trk>
</gpx>
